Time;durP1;ratioP1;P1;durP2;ratioP2;P2;SDS_P1;SDS_P2;PMS_P1;PMS_P2;Temp;Humidity;BMP_temperature;BMP_pressure;BME280_temperature;BME280_humidity;BME280_pressure;Samples;Min_cycle;Max_cycle;Signal;HPM_P1;HPM_P2
2022/12/31 00:00:07;;;;;;;1.77;1.20;;;;;;;;;;4933294;28;20051;-90
2022/12/31 00:02:39;;;;;;;4.28;1.27;;;;;;;;;;4934051;29;20074;-91
2022/12/31 00:05:07;;;;;;;1.52;1.10;;;;;;;;;;4916772;28;20669;-91
2022/12/31 00:07:36;;;;;;;0.80;0.80;;;;;;;;;;4932060;29;20047;-90
2022/12/31 00:10:03;;;;;;;1.10;1.02;;;;;;;;;;4947755;29;20048;-90
2022/12/31 00:12:31;;;;;;;0.95;0.75;;;;;;;;;;4931960;29;20423;-90
2022/12/31 00:14:59;;;;;;;0.80;0.80;;;;;;;;;;4933617;29;20086;-90
2022/12/31 00:17:28;;;;;;;0.95;0.80;;;;;;;;;;4942941;28;20043;-90
2022/12/31 00:19:56;;;;;;;0.80;0.80;;;;;;;;;;4948812;28;20051;-91
2022/12/31 00:22:24;;;;;;;1.30;1.20;;;;;;;;;;4917273;29;20055;-91
2022/12/31 00:24:52;;;;;;;0.63;0.63;;;;;;;;;;4932967;28;20550;-91
2022/12/31 00:33:39;;;;;;;0.40;0.40;;;;;;;;;;4910546;29;20048;-91
2022/12/31 00:36:13;;;;;;;0.60;0.50;;;;;;;;;;4907992;29;20048;-91
2022/12/31 00:38:42;;;;;;;1.00;0.68;;;;;;;;;;4900496;29;20051;-91
2022/12/31 00:41:10;;;;;;;1.42;0.90;;;;;;;;;;4912076;28;20051;-91
2022/12/31 00:43:38;;;;;;;0.70;0.70;;;;;;;;;;4912854;28;20164;-92
2022/12/31 00:46:08;;;;;;;0.63;0.60;;;;;;;;;;4928608;29;20060;-91
2022/12/31 00:48:36;;;;;;;1.15;0.95;;;;;;;;;;4898616;28;20063;-91
2022/12/31 00:51:05;;;;;;;1.05;0.90;;;;;;;;;;4929006;29;20063;-90
2022/12/31 00:53:34;;;;;;;1.02;0.93;;;;;;;;;;4915836;29;20059;-90
2022/12/31 00:56:14;;;;;;;1.23;1.10;;;;;;;;;;4927167;28;20044;-91
2022/12/31 00:58:42;;;;;;;4.32;1.98;;;;;;;;;;4914451;29;20059;-91
2022/12/31 01:01:18;;;;;;;1.38;1.25;;;;;;;;;;4927857;28;20062;-91
2022/12/31 01:03:47;;;;;;;1.20;1.10;;;;;;;;;;4913266;28;20417;-90
2022/12/31 01:06:22;;;;;;;1.50;1.40;;;;;;;;;;4902629;29;20052;-91
2022/12/31 01:08:51;;;;;;;2.42;1.40;;;;;;;;;;4893149;29;20060;-90
2022/12/31 01:11:20;;;;;;;0.95;0.95;;;;;;;;;;4896860;28;20056;-90
2022/12/31 01:13:54;;;;;;;1.33;1.10;;;;;;;;;;4894965;29;20068;-90
2022/12/31 01:16:27;;;;;;;1.35;1.25;;;;;;;;;;4893355;29;20049;-90
2022/12/31 01:18:57;;;;;;;1.35;1.25;;;;;;;;;;4909696;29;20060;-91
2022/12/31 01:21:29;;;;;;;1.00;1.00;;;;;;;;;;4924150;29;20043;-90
2022/12/31 01:23:58;;;;;;;1.20;1.10;;;;;;;;;;4929738;28;20055;-90
2022/12/31 01:26:30;;;;;;;1.20;1.10;;;;;;;;;;4948000;29;20070;-91
2022/12/31 01:29:01;;;;;;;0.70;0.70;;;;;;;;;;4930890;28;20054;-90
2022/12/31 01:31:30;;;;;;;0.70;0.70;;;;;;;;;;4931314;28;20067;-91
2022/12/31 01:33:58;;;;;;;0.32;0.32;;;;;;;;;;4912235;29;20053;-90
2022/12/31 01:40:17;;;;;;;0.82;0.63;;;;;;;;;;5225399;23;20050;-90
2022/12/31 01:42:45;;;;;;;0.50;0.50;;;;;;;;;;4953882;28;20054;-90
2022/12/31 01:45:14;;;;;;;0.45;0.45;;;;;;;;;;4969832;28;20043;-90
2022/12/31 01:47:53;;;;;;;0.40;0.40;;;;;;;;;;4953576;28;20039;-92
2022/12/31 01:50:23;;;;;;;0.40;0.40;;;;;;;;;;4968114;28;20554;-90
2022/12/31 01:52:54;;;;;;;0.50;0.50;;;;;;;;;;4967807;28;20035;-91
2022/12/31 01:55:24;;;;;;;0.68;0.40;;;;;;;;;;4952915;28;20047;-90
2022/12/31 01:57:54;;;;;;;0.38;0.38;;;;;;;;;;4937928;28;20051;-91
2022/12/31 02:00:23;;;;;;;1.35;0.50;;;;;;;;;;4969557;28;20529;-90
2022/12/31 02:02:52;;;;;;;0.40;0.40;;;;;;;;;;4953151;28;20494;-89
2022/12/31 02:05:26;;;;;;;0.77;0.50;;;;;;;;;;4966204;28;20526;-90
2022/12/31 02:07:54;;;;;;;0.45;0.45;;;;;;;;;;4933264;29;20074;-91
2022/12/31 02:10:25;;;;;;;0.32;0.32;;;;;;;;;;4948254;28;20289;-91
2022/12/31 02:12:57;;;;;;;0.50;0.50;;;;;;;;;;4948911;28;20066;-94
2022/12/31 02:15:37;;;;;;;0.40;0.40;;;;;;;;;;4949686;28;20055;-91
2022/12/31 02:18:18;;;;;;;0.30;0.30;;;;;;;;;;4933937;29;20060;-89
2022/12/31 02:21:12;;;;;;;0.30;0.30;;;;;;;;;;4970433;28;20477;-92
2022/12/31 02:24:01;;;;;;;0.30;0.30;;;;;;;;;;4943241;28;20049;-93
2022/12/31 02:26:34;;;;;;;0.30;0.30;;;;;;;;;;4973586;28;20062;-94
2022/12/31 02:29:23;;;;;;;0.30;0.30;;;;;;;;;;4989781;28;20039;-92
2022/12/31 02:31:59;;;;;;;0.43;0.40;;;;;;;;;;4931330;28;20512;-92
2022/12/31 02:34:32;;;;;;;0.38;0.38;;;;;;;;;;4972546;28;20078;-93
2022/12/31 02:37:06;;;;;;;0.70;0.38;;;;;;;;;;4931315;28;20050;-93
2022/12/31 02:39:35;;;;;;;1.02;0.40;;;;;;;;;;4942378;28;20046;-92
2022/12/31 02:42:03;;;;;;;0.40;0.40;;;;;;;;;;4953459;28;20509;-92
2022/12/31 02:44:32;;;;;;;0.38;0.38;;;;;;;;;;4953181;28;20051;-92
2022/12/31 02:47:09;;;;;;;0.30;0.30;;;;;;;;;;4953256;28;20051;-94
2022/12/31 02:49:43;;;;;;;0.38;0.38;;;;;;;;;;4929903;28;20043;-92
2022/12/31 02:52:18;;;;;;;0.30;0.30;;;;;;;;;;4940577;28;20081;-93
2022/12/31 02:54:46;;;;;;;0.40;0.40;;;;;;;;;;4941542;28;20047;-93
2022/12/31 02:57:26;;;;;;;0.40;0.40;;;;;;;;;;4956157;28;20407;-94
2022/12/31 03:02:45;;;;;;;0.30;0.30;;;;;;;;;;4974505;28;20050;-92
2022/12/31 03:05:15;;;;;;;0.35;0.35;;;;;;;;;;4971075;28;20053;-93
2022/12/31 03:07:45;;;;;;;0.40;0.40;;;;;;;;;;4951358;28;20045;-91
2022/12/31 03:10:13;;;;;;;0.40;0.40;;;;;;;;;;4952953;29;20059;-92
2022/12/31 03:12:45;;;;;;;0.40;0.40;;;;;;;;;;4952751;28;20051;-91
2022/12/31 03:15:19;;;;;;;0.75;0.32;;;;;;;;;;4936783;28;20083;-93
2022/12/31 03:17:57;;;;;;;0.57;0.40;;;;;;;;;;4937522;29;20054;-92
2022/12/31 03:23:22;;;;;;;0.40;0.40;;;;;;;;;;4958425;28;20062;-92
2022/12/31 03:25:52;;;;;;;0.30;0.30;;;;;;;;;;4976521;28;20061;-94
2022/12/31 03:28:21;;;;;;;0.40;0.40;;;;;;;;;;4992770;28;20049;-90
2022/12/31 03:30:54;;;;;;;0.40;0.40;;;;;;;;;;4976042;28;20062;-93
2022/12/31 03:33:23;;;;;;;0.95;0.40;;;;;;;;;;4975345;28;20054;-92
2022/12/31 03:35:52;;;;;;;0.40;0.40;;;;;;;;;;4959560;28;20130;-93
2022/12/31 03:38:20;;;;;;;0.30;0.30;;;;;;;;;;4970862;28;20042;-92
2022/12/31 03:40:50;;;;;;;0.30;0.30;;;;;;;;;;4972472;28;20046;-92
2022/12/31 03:43:19;;;;;;;0.77;0.50;;;;;;;;;;4972863;28;20521;-92
2022/12/31 03:45:50;;;;;;;0.30;0.30;;;;;;;;;;4973333;28;20058;-93
2022/12/31 03:48:19;;;;;;;0.30;0.30;;;;;;;;;;4924465;28;20073;-93
2022/12/31 03:50:47;;;;;;;0.30;0.30;;;;;;;;;;4956171;28;20545;-92
2022/12/31 03:53:15;;;;;;;0.47;0.43;;;;;;;;;;4955047;28;20414;-92
2022/12/31 03:55:44;;;;;;;0.50;0.50;;;;;;;;;;4923932;28;20060;-94
2022/12/31 03:58:13;;;;;;;9.45;0.73;;;;;;;;;;4956068;28;20062;-92
2022/12/31 04:00:42;;;;;;;0.50;0.50;;;;;;;;;;4948265;28;20043;-94
2022/12/31 04:03:12;;;;;;;0.40;0.40;;;;;;;;;;4934908;29;20592;-91
2022/12/31 04:05:41;;;;;;;0.40;0.40;;;;;;;;;;4920236;29;20051;-93
2022/12/31 04:08:09;;;;;;;0.40;0.40;;;;;;;;;;4918047;29;20044;-93
2022/12/31 04:10:37;;;;;;;0.40;0.40;;;;;;;;;;4918641;29;20070;-92
2022/12/31 04:13:04;;;;;;;0.47;0.35;;;;;;;;;;4950397;29;20087;-93
2022/12/31 04:15:32;;;;;;;0.40;0.40;;;;;;;;;;4919168;29;20693;-92
2022/12/31 04:18:00;;;;;;;0.30;0.30;;;;;;;;;;4919531;29;20039;-92
2022/12/31 04:20:28;;;;;;;0.47;0.40;;;;;;;;;;4926879;28;20050;-92
2022/12/31 04:22:56;;;;;;;0.63;0.40;;;;;;;;;;4953367;28;20081;-92
2022/12/31 04:25:24;;;;;;;1.40;1.30;;;;;;;;;;4972861;28;20501;-92
2022/12/31 04:27:52;;;;;;;1.30;0.55;;;;;;;;;;4974543;28;20039;-93
2022/12/31 04:30:20;;;;;;;0.30;0.30;;;;;;;;;;4975160;28;20042;-93
2022/12/31 04:32:48;;;;;;;0.50;0.50;;;;;;;;;;4974359;28;20046;-93
2022/12/31 04:35:17;;;;;;;0.40;0.40;;;;;;;;;;4958446;28;20062;-93
2022/12/31 04:37:45;;;;;;;0.30;0.30;;;;;;;;;;4974164;28;20057;-92
2022/12/31 04:40:13;;;;;;;0.50;0.50;;;;;;;;;;4970890;28;20051;-94
2022/12/31 04:42:42;;;;;;;0.77;0.30;;;;;;;;;;4923892;28;20066;-93
2022/12/31 04:45:10;;;;;;;0.30;0.30;;;;;;;;;;4923490;28;20047;-93
2022/12/31 04:47:38;;;;;;;0.57;0.50;;;;;;;;;;4954005;28;20038;-92
2022/12/31 04:50:06;;;;;;;0.40;0.40;;;;;;;;;;4954940;28;20078;-92
2022/12/31 04:52:34;;;;;;;0.40;0.40;;;;;;;;;;4953470;28;20049;-94
2022/12/31 04:55:10;;;;;;;0.40;0.40;;;;;;;;;;4939162;28;20059;-92
2022/12/31 04:57:38;;;;;;;1.15;0.90;;;;;;;;;;4955433;28;20057;-92
2022/12/31 05:00:07;;;;;;;0.52;0.52;;;;;;;;;;4954497;28;20253;-94
2022/12/31 05:02:35;;;;;;;0.40;0.40;;;;;;;;;;4939550;28;20055;-94
2022/12/31 05:05:07;;;;;;;0.30;0.30;;;;;;;;;;4939521;28;20046;-92
2022/12/31 05:07:35;;;;;;;0.50;0.50;;;;;;;;;;4969514;28;20035;-93
2022/12/31 05:10:03;;;;;;;0.40;0.40;;;;;;;;;;4954381;28;20055;-93
2022/12/31 05:12:31;;;;;;;0.40;0.40;;;;;;;;;;4969397;28;20046;-93
2022/12/31 05:14:59;;;;;;;0.50;0.50;;;;;;;;;;4954826;28;20078;-93
2022/12/31 05:17:27;;;;;;;0.50;0.50;;;;;;;;;;4938837;28;20058;-92
2022/12/31 05:19:55;;;;;;;0.68;0.68;;;;;;;;;;4958039;28;20485;-94
2022/12/31 05:22:30;;;;;;;0.98;0.45;;;;;;;;;;4957659;28;20062;-94
2022/12/31 05:25:00;;;;;;;0.43;0.43;;;;;;;;;;4957615;28;20425;-93
2022/12/31 05:27:29;;;;;;;0.50;0.40;;;;;;;;;;4973646;28;20034;-94
2022/12/31 05:29:59;;;;;;;0.60;0.40;;;;;;;;;;4974078;28;20065;-95
2022/12/31 05:32:28;;;;;;;0.95;0.95;;;;;;;;;;4990656;28;20054;-94
2022/12/31 05:34:58;;;;;;;0.40;0.40;;;;;;;;;;4974461;28;20398;-94
2022/12/31 05:37:31;;;;;;;0.40;0.40;;;;;;;;;;4953528;28;20171;-94
2022/12/31 05:39:59;;;;;;;0.60;0.60;;;;;;;;;;4918490;29;20061;-94
2022/12/31 05:42:29;;;;;;;0.55;0.55;;;;;;;;;;4935618;29;20055;-93
2022/12/31 05:44:57;;;;;;;0.50;0.50;;;;;;;;;;4950070;28;20054;-93
2022/12/31 05:47:25;;;;;;;0.50;0.50;;;;;;;;;;4951416;28;20060;-93
2022/12/31 05:49:56;;;;;;;0.50;0.50;;;;;;;;;;4935428;29;20051;-92
2022/12/31 05:52:24;;;;;;;0.70;0.70;;;;;;;;;;4949460;28;20054;-93
2022/12/31 05:54:52;;;;;;;0.90;0.90;;;;;;;;;;4950757;28;20346;-94
2022/12/31 05:57:20;;;;;;;0.70;0.70;;;;;;;;;;4951032;28;20414;-93
2022/12/31 05:59:48;;;;;;;0.50;0.50;;;;;;;;;;4950664;28;20055;-92
2022/12/31 06:02:16;;;;;;;0.73;0.73;;;;;;;;;;4935409;29;20063;-92
2022/12/31 06:04:47;;;;;;;0.95;0.90;;;;;;;;;;4934478;29;20053;-93
2022/12/31 06:07:17;;;;;;;0.50;0.50;;;;;;;;;;4932846;29;20070;-93
2022/12/31 06:09:45;;;;;;;0.50;0.50;;;;;;;;;;4949991;28;20055;-94
2022/12/31 06:12:14;;;;;;;0.50;0.50;;;;;;;;;;4924614;28;20051;-94
2022/12/31 06:14:43;;;;;;;0.50;0.50;;;;;;;;;;4935502;29;20431;-93
2022/12/31 06:17:12;;;;;;;0.90;0.60;;;;;;;;;;4934297;28;20407;-94
2022/12/31 06:19:41;;;;;;;0.70;0.70;;;;;;;;;;4937603;28;20054;-93
2022/12/31 06:22:14;;;;;;;2.55;0.98;;;;;;;;;;4956483;28;20065;-90
2022/12/31 06:24:46;;;;;;;0.70;0.70;;;;;;;;;;4960645;28;20046;-92
2022/12/31 06:27:15;;;;;;;2.10;0.50;;;;;;;;;;4975985;28;20046;-94
2022/12/31 06:29:44;;;;;;;0.77;0.70;;;;;;;;;;4961265;28;20055;-93
2022/12/31 06:32:13;;;;;;;1.25;1.15;;;;;;;;;;4976841;28;20046;-92
2022/12/31 06:34:41;;;;;;;2.33;1.52;;;;;;;;;;4960739;28;20058;-93
2022/12/31 06:37:10;;;;;;;1.90;1.40;;;;;;;;;;4955612;28;20055;-92
2022/12/31 06:39:38;;;;;;;1.50;1.40;;;;;;;;;;4983450;28;20375;-94
2022/12/31 06:42:06;;;;;;;1.15;1.05;;;;;;;;;;4957869;28;20054;-95
2022/12/31 06:44:34;;;;;;;1.95;1.45;;;;;;;;;;4941386;28;20055;-95
2022/12/31 06:47:02;;;;;;;1.10;1.10;;;;;;;;;;4957501;28;20061;-93
2022/12/31 06:49:32;;;;;;;1.08;0.80;;;;;;;;;;4954912;28;20054;-95
2022/12/31 06:52:01;;;;;;;2.22;1.33;;;;;;;;;;4924869;28;20659;-94
2022/12/31 06:54:29;;;;;;;1.58;1.33;;;;;;;;;;4941165;28;20055;-92
2022/12/31 06:56:59;;;;;;;1.30;1.20;;;;;;;;;;4956992;28;20449;-94
2022/12/31 06:59:28;;;;;;;1.60;1.50;;;;;;;;;;4957045;28;20046;-93
2022/12/31 07:02:18;;;;;;;2.20;2.00;;;;;;;;;;4941605;28;20362;-95
2022/12/31 07:05:07;;;;;;;1.20;1.10;;;;;;;;;;4940002;28;20050;-92
2022/12/31 07:07:45;;;;;;;1.30;1.20;;;;;;;;;;4936345;29;20043;-94
2022/12/31 07:10:29;;;;;;;3.60;1.25;;;;;;;;;;4937448;29;20047;-94
2022/12/31 07:12:57;;;;;;;1.73;1.63;;;;;;;;;;4936920;28;20410;-94
2022/12/31 07:15:46;;;;;;;1.92;1.75;;;;;;;;;;4953168;29;20066;-92
2022/12/31 07:18:20;;;;;;;2.08;1.27;;;;;;;;;;4904160;29;20059;-92
2022/12/31 07:20:48;;;;;;;1.35;1.25;;;;;;;;;;4943206;28;20394;-93
2022/12/31 07:23:16;;;;;;;1.33;1.10;;;;;;;;;;4975251;28;20058;-93
2022/12/31 07:25:51;;;;;;;1.80;1.70;;;;;;;;;;4960395;28;20050;-94
2022/12/31 07:28:38;;;;;;;1.42;1.33;;;;;;;;;;4959526;28;20053;-92
2022/12/31 07:31:18;;;;;;;2.17;1.98;;;;;;;;;;4960666;28;20070;-94
2022/12/31 07:33:56;;;;;;;1.70;1.60;;;;;;;;;;4959973;28;20557;-94
2022/12/31 07:36:42;;;;;;;9.13;1.42;;;;;;;;;;4984726;28;20042;-92
2022/12/31 07:39:14;;;;;;;1.30;1.20;;;;;;;;;;4962498;28;20082;-93
2022/12/31 07:41:43;;;;;;;1.80;1.52;;;;;;;;;;4940576;28;20051;-93
2022/12/31 07:44:20;;;;;;;2.40;1.58;;;;;;;;;;4955903;28;20652;-92
2022/12/31 07:46:54;;;;;;;1.90;1.50;;;;;;;;;;4940694;28;20055;-91
2022/12/31 07:49:23;;;;;;;2.03;1.30;;;;;;;;;;4955566;28;20051;-93
2022/12/31 07:51:53;;;;;;;2.38;1.60;;;;;;;;;;4954983;28;20047;-91
2022/12/31 07:54:22;;;;;;;3.22;1.95;;;;;;;;;;4973237;28;20039;-92
2022/12/31 07:56:51;;;;;;;1.60;1.52;;;;;;;;;;4940732;28;20054;-93
2022/12/31 07:59:22;;;;;;;1.63;1.52;;;;;;;;;;4972734;28;20058;-93
2022/12/31 08:02:07;;;;;;;1.60;1.50;;;;;;;;;;4941112;28;20053;-93
2022/12/31 08:04:41;;;;;;;3.47;1.00;;;;;;;;;;4940366;28;20047;-92
2022/12/31 08:07:36;;;;;;;1.42;1.33;;;;;;;;;;4951295;28;20066;-93
2022/12/31 08:10:10;;;;;;;1.10;1.02;;;;;;;;;;4952121;28;20403;-92
2022/12/31 08:12:46;;;;;;;1.40;1.30;;;;;;;;;;4952515;28;20039;-93
2022/12/31 08:15:17;;;;;;;2.55;1.70;;;;;;;;;;4936643;29;20422;-92
2022/12/31 08:17:45;;;;;;;1.50;1.40;;;;;;;;;;4936956;29;20082;-92
2022/12/31 08:20:15;;;;;;;1.65;1.52;;;;;;;;;;4960534;28;20053;-93
2022/12/31 08:22:52;;;;;;;2.05;1.40;;;;;;;;;;4943600;28;20639;-91
2022/12/31 08:25:20;;;;;;;3.08;1.58;;;;;;;;;;4957483;28;20534;-91
2022/12/31 08:28:07;;;;;;;1.38;1.02;;;;;;;;;;4990982;28;20179;-91
2022/12/31 08:31:03;;;;;;;1.83;1.15;;;;;;;;;;4975062;28;20046;-93
2022/12/31 08:33:52;;;;;;;0.75;0.75;;;;;;;;;;4973924;28;20046;-92
2022/12/31 08:36:37;;;;;;;1.95;1.85;;;;;;;;;;4933142;28;20051;-92
2022/12/31 08:39:12;;;;;;;1.30;1.20;;;;;;;;;;4955050;28;20062;-93
2022/12/31 08:41:45;;;;;;;1.10;0.93;;;;;;;;;;4939776;28;20038;-92
2022/12/31 08:44:16;;;;;;;0.98;0.95;;;;;;;;;;4955666;28;20051;-92
2022/12/31 08:46:47;;;;;;;1.35;1.25;;;;;;;;;;4955424;28;20047;-92
2022/12/31 08:49:16;;;;;;;1.83;1.27;;;;;;;;;;4950816;28;20066;-85
2022/12/31 08:51:45;;;;;;;1.33;1.25;;;;;;;;;;4976656;28;20543;-91
2022/12/31 08:54:13;;;;;;;5.38;1.38;;;;;;;;;;4919394;28;20077;-90
2022/12/31 08:56:47;;;;;;;1.90;0.88;;;;;;;;;;4937857;28;20066;-90
2022/12/31 08:59:26;;;;;;;1.42;1.10;;;;;;;;;;4954281;28;20054;-90
2022/12/31 09:02:06;;;;;;;2.05;1.13;;;;;;;;;;4954593;28;20066;-89
2022/12/31 09:04:54;;;;;;;1.27;1.10;;;;;;;;;;4954647;28;20050;-87
2022/12/31 09:07:26;;;;;;;2.60;1.10;;;;;;;;;;4936446;29;20124;-92
2022/12/31 09:10:04;;;;;;;2.65;1.13;;;;;;;;;;4946333;28;20050;-91
2022/12/31 09:12:47;;;;;;;1.60;1.50;;;;;;;;;;4968850;28;20035;-90
2022/12/31 09:15:20;;;;;;;2.00;1.90;;;;;;;;;;4954544;28;20047;-91
2022/12/31 09:17:51;;;;;;;1.60;1.50;;;;;;;;;;4955281;28;20533;-91
2022/12/31 09:20:19;;;;;;;1.35;1.25;;;;;;;;;;4929862;28;20457;-91
2022/12/31 09:22:48;;;;;;;1.35;1.25;;;;;;;;;;4957719;28;20046;-92
2022/12/31 09:25:17;;;;;;;1.55;1.30;;;;;;;;;;4973329;28;20049;-89
2022/12/31 09:28:02;;;;;;;1.73;1.63;;;;;;;;;;4974404;28;20042;-92
2022/12/31 09:30:37;;;;;;;1.20;1.10;;;;;;;;;;4958281;28;20062;-90
2022/12/31 09:33:06;;;;;;;1.52;1.10;;;;;;;;;;4941044;28;20050;-90
2022/12/31 09:35:53;;;;;;;2.42;2.25;;;;;;;;;;4972526;28;20092;-89
2022/12/31 09:38:36;;;;;;;1.30;1.20;;;;;;;;;;4953930;28;20054;-91
2022/12/31 09:41:23;;;;;;;1.20;0.88;;;;;;;;;;4931398;28;20051;-89
2022/12/31 09:44:03;;;;;;;0.82;0.82;;;;;;;;;;4930384;28;20070;-90
2022/12/31 09:46:34;;;;;;;1.38;1.15;;;;;;;;;;4932762;29;20063;-89
2022/12/31 09:49:05;;;;;;;1.05;0.80;;;;;;;;;;4915759;29;20523;-91
2022/12/31 09:51:34;;;;;;;1.10;1.00;;;;;;;;;;4926024;29;20066;-89
2022/12/31 09:54:21;;;;;;;3.13;1.25;;;;;;;;;;4942212;28;20047;-89
2022/12/31 09:57:04;;;;;;;1.20;1.10;;;;;;;;;;4904083;29;20055;-92
2022/12/31 09:59:45;;;;;;;1.98;1.00;;;;;;;;;;4936944;28;20055;-91
2022/12/31 10:02:14;;;;;;;1.95;1.10;;;;;;;;;;4952432;28;20059;-91
2022/12/31 10:04:48;;;;;;;3.45;2.40;;;;;;;;;;4949874;28;20653;-92
2022/12/31 10:07:22;;;;;;;3.00;2.17;;;;;;;;;;4916601;29;20519;-91
2022/12/31 10:10:00;;;;;;;1.83;1.23;;;;;;;;;;4931796;29;20048;-90
2022/12/31 10:12:31;;;;;;;5.80;2.15;;;;;;;;;;4931118;29;20047;-93
2022/12/31 10:15:32;;;;;;;4.95;4.18;;;;;;;;;;4916374;29;20051;-93
2022/12/31 10:18:03;;;;;;;1.55;1.45;;;;;;;;;;4936528;28;20051;-92
2022/12/31 10:20:34;;;;;;;1.02;0.93;;;;;;;;;;4940489;29;20059;-90
2022/12/31 10:23:10;;;;;;;1.73;1.40;;;;;;;;;;4940802;28;20063;-90
2022/12/31 10:25:47;;;;;;;1.40;1.30;;;;;;;;;;4932144;29;20404;-92
2022/12/31 10:28:37;;;;;;;1.42;1.35;;;;;;;;;;4932239;29;20058;-89
2022/12/31 10:31:12;;;;;;;3.88;2.35;;;;;;;;;;4899272;29;20063;-92
2022/12/31 10:33:55;;;;;;;4.25;3.22;;;;;;;;;;4864052;29;20061;-92
2022/12/31 10:36:24;;;;;;;1.30;1.20;;;;;;;;;;4854286;29;20056;-91
2022/12/31 10:38:55;;;;;;;3.38;1.50;;;;;;;;;;4892411;29;20071;-89
2022/12/31 10:41:43;;;;;;;1.05;0.93;;;;;;;;;;4890683;29;20045;-92
2022/12/31 10:44:14;;;;;;;1.50;1.15;;;;;;;;;;4881333;29;20057;-87
2022/12/31 10:46:45;;;;;;;1.83;1.52;;;;;;;;;;4860151;29;20069;-85
2022/12/31 10:49:13;;;;;;;2.10;1.70;;;;;;;;;;4874372;29;20049;-85
2022/12/31 10:51:53;;;;;;;1.50;1.10;;;;;;;;;;4874011;29;20045;-87
2022/12/31 10:54:24;;;;;;;1.80;1.30;;;;;;;;;;4873690;29;20870;-86
2022/12/31 10:56:54;;;;;;;2.90;1.85;;;;;;;;;;4874739;29;20416;-86
2022/12/31 10:59:23;;;;;;;;;;;;;;;;;;4875111;29;20052;-87
2022/12/31 11:02:07;;;;;;;1.20;1.10;;;;;;;;;;4890294;29;19927;-86
2022/12/31 11:04:48;;;;;;;3.13;1.50;;;;;;;;;;4905583;29;20534;-87
2022/12/31 11:07:34;;;;;;;22.37;1.97;;;;;;;;;;4928478;28;20474;-86
2022/12/31 11:10:08;;;;;;;1.05;0.88;;;;;;;;;;4929866;29;20046;-85
2022/12/31 11:12:39;;;;;;;2.60;1.38;;;;;;;;;;4933581;29;20044;-86
2022/12/31 11:15:18;;;;;;;1.75;1.65;;;;;;;;;;4933286;29;20055;-85
2022/12/31 11:18:13;;;;;;;1.35;1.20;;;;;;;;;;4947017;29;20411;-86
2022/12/31 11:20:49;;;;;;;2.45;1.55;;;;;;;;;;4944416;28;20676;-86
2022/12/31 11:23:30;;;;;;;1.60;1.50;;;;;;;;;;4969589;28;20058;-86
2022/12/31 11:26:15;;;;;;;2.22;1.50;;;;;;;;;;4971418;28;20747;-85
2022/12/31 11:28:47;;;;;;;1.95;1.70;;;;;;;;;;4954706;28;20055;-86
2022/12/31 11:31:34;;;;;;;3.17;1.45;;;;;;;;;;4957563;28;20398;-85
2022/12/31 11:34:11;;;;;;;1.77;1.25;;;;;;;;;;4921760;29;20051;-86
2022/12/31 11:36:43;;;;;;;1.92;0.98;;;;;;;;;;4948662;29;20094;-86
2022/12/31 11:39:25;;;;;;;1.83;1.63;;;;;;;;;;4944047;28;20618;-85
2022/12/31 11:42:01;;;;;;;4.30;1.80;;;;;;;;;;4938747;28;20058;-86
2022/12/31 11:44:29;;;;;;;2.65;2.13;;;;;;;;;;4953736;28;20058;-87
2022/12/31 11:47:15;;;;;;;1.73;1.00;;;;;;;;;;4922820;28;20051;-86
2022/12/31 11:50:19;;;;;;;1.45;1.35;;;;;;;;;;4936464;28;20403;-87
2022/12/31 11:52:47;;;;;;;1.33;1.00;;;;;;;;;;4894297;29;20051;-86
2022/12/31 11:55:15;;;;;;;1.38;1.23;;;;;;;;;;4946365;28;20054;-86
2022/12/31 11:57:46;;;;;;;1.75;1.38;;;;;;;;;;4954948;28;20680;-86
2022/12/31 12:00:19;;;;;;;1.25;1.10;;;;;;;;;;4954287;28;20418;-86
2022/12/31 12:02:51;;;;;;;1.27;1.15;;;;;;;;;;4971628;28;20069;-86
2022/12/31 12:05:21;;;;;;;1.55;1.35;;;;;;;;;;4935062;28;20049;-87
2022/12/31 12:07:49;;;;;;;2.97;1.63;;;;;;;;;;4937497;28;20058;-87
2022/12/31 12:10:23;;;;;;;2.85;1.92;;;;;;;;;;4969102;28;20055;-88
2022/12/31 12:12:58;;;;;;;2.83;2.00;;;;;;;;;;4950728;28;20040;-87
2022/12/31 12:15:33;;;;;;;3.17;1.08;;;;;;;;;;4968199;28;20063;-88
2022/12/31 12:18:16;;;;;;;1.20;1.10;;;;;;;;;;4938418;28;20502;-87
2022/12/31 12:20:45;;;;;;;2.10;1.63;;;;;;;;;;4963490;28;20034;-90
2022/12/31 12:23:16;;;;;;;1.63;0.82;;;;;;;;;;4925122;28;20051;-88
2022/12/31 12:25:44;;;;;;;2.60;2.37;;;;;;;;;;4937443;28;20403;-87
2022/12/31 12:28:18;;;;;;;1.33;1.00;;;;;;;;;;4953264;28;20282;-87
2022/12/31 12:30:52;;;;;;;1.35;1.25;;;;;;;;;;4971215;28;20050;-87
2022/12/31 12:33:21;;;;;;;1.40;1.30;;;;;;;;;;4934042;28;20047;-87
2022/12/31 12:35:49;;;;;;;1.42;1.33;;;;;;;;;;4950270;28;20405;-87
2022/12/31 12:38:21;;;;;;;3.10;2.35;;;;;;;;;;4957543;28;20054;-87
2022/12/31 12:40:54;;;;;;;1.00;1.00;;;;;;;;;;4920533;28;20050;-88
2022/12/31 12:43:26;;;;;;;3.22;1.30;;;;;;;;;;4953286;28;20422;-88
2022/12/31 12:46:00;;;;;;;1.58;1.17;;;;;;;;;;4971221;28;20050;-88
2022/12/31 12:48:34;;;;;;;2.33;1.83;;;;;;;;;;4953125;28;20735;-87
2022/12/31 12:51:07;;;;;;;1.50;1.40;;;;;;;;;;4970625;28;20055;-88
2022/12/31 12:53:40;;;;;;;1.60;1.00;;;;;;;;;;4951401;28;20418;-88
2022/12/31 12:56:21;;;;;;;3.28;1.20;;;;;;;;;;4969783;28;20057;-87
2022/12/31 12:58:52;;;;;;;1.30;1.20;;;;;;;;;;4971199;28;20406;-89
2022/12/31 13:01:35;;;;;;;1.27;1.25;;;;;;;;;;4971099;28;20043;-89
2022/12/31 13:04:03;;;;;;;2.17;1.10;;;;;;;;;;4953275;28;20514;-87
2022/12/31 13:07:16;;;;;;;3.38;1.50;;;;;;;;;;4938940;29;20411;-87
2022/12/31 13:10:10;;;;;;;1.20;0.88;;;;;;;;;;4931569;29;20062;-89
2022/12/31 13:12:43;;;;;;;17.08;2.83;;;;;;;;;;4929174;29;20043;-89
2022/12/31 13:15:39;;;;;;;1.55;1.40;;;;;;;;;;4950659;28;20418;-90
2022/12/31 13:18:20;;;;;;;2.13;1.13;;;;;;;;;;4967190;28;20059;-89
2022/12/31 13:21:09;;;;;;;1.00;0.90;;;;;;;;;;4963602;28;20508;-83
2022/12/31 13:23:44;;;;;;;2.83;2.47;;;;;;;;;;4932793;28;20054;-83
2022/12/31 13:26:15;;;;;;;1.25;1.15;;;;;;;;;;4972302;28;20046;-89
2022/12/31 13:28:52;;;;;;;1.17;0.90;;;;;;;;;;4972446;28;20042;-90
2022/12/31 13:31:26;;;;;;;0.77;0.77;;;;;;;;;;4990124;28;20046;-90
2022/12/31 13:34:05;;;;;;;2.58;1.35;;;;;;;;;;4971125;28;20065;-90
2022/12/31 13:36:35;;;;;;;1.05;0.88;;;;;;;;;;4972289;28;20058;-91
2022/12/31 13:39:05;;;;;;;1.63;0.95;;;;;;;;;;4958511;28;20050;-90
2022/12/31 13:41:38;;;;;;;1.33;1.23;;;;;;;;;;4953343;28;20510;-90
2022/12/31 13:44:18;;;;;;;1.13;0.75;;;;;;;;;;4970324;28;20043;-90
2022/12/31 13:46:55;;;;;;;2.60;1.77;;;;;;;;;;4971712;28;20042;-92
2022/12/31 13:49:26;;;;;;;1.48;0.88;;;;;;;;;;4969843;28;20054;-89
2022/12/31 13:52:01;;;;;;;1.00;1.00;;;;;;;;;;4951914;28;20529;-89
2022/12/31 13:54:34;;;;;;;1.30;0.88;;;;;;;;;;4921554;28;20523;-88
2022/12/31 13:57:04;;;;;;;1.48;1.25;;;;;;;;;;4969937;28;20462;-88
2022/12/31 13:59:37;;;;;;;1.05;0.93;;;;;;;;;;4936769;28;20035;-88
2022/12/31 14:02:26;;;;;;;3.95;0.68;;;;;;;;;;4951779;28;20054;-89
2022/12/31 14:04:59;;;;;;;9.63;1.05;;;;;;;;;;4939915;28;20058;-90
2022/12/31 14:07:48;;;;;;;1.38;0.85;;;;;;;;;;4949490;29;20054;-87
2022/12/31 14:10:19;;;;;;;0.80;0.80;;;;;;;;;;4917148;29;20062;-88
2022/12/31 14:12:55;;;;;;;4.00;1.30;;;;;;;;;;4950717;28;20050;-86
2022/12/31 14:15:23;;;;;;;1.00;0.82;;;;;;;;;;4949685;29;20059;-90
2022/12/31 14:18:01;;;;;;;0.73;0.73;;;;;;;;;;4933935;29;20135;-90
2022/12/31 14:20:48;;;;;;;0.98;0.93;;;;;;;;;;4952421;28;20058;-91
2022/12/31 14:23:38;;;;;;;0.85;0.85;;;;;;;;;;4952038;28;20058;-90
2022/12/31 14:26:14;;;;;;;0.93;0.93;;;;;;;;;;4970781;28;20062;-90
2022/12/31 14:28:47;;;;;;;0.93;0.93;;;;;;;;;;4953893;28;20043;-90
2022/12/31 14:31:15;;;;;;;1.23;1.10;;;;;;;;;;4951927;28;20066;-88
2022/12/31 14:33:51;;;;;;;2.67;1.90;;;;;;;;;;4937571;28;20051;-88
2022/12/31 14:36:19;;;;;;;0.70;0.70;;;;;;;;;;4933768;28;20047;-88
2022/12/31 14:38:56;;;;;;;1.95;1.38;;;;;;;;;;4959591;28;20051;-89
2022/12/31 14:41:47;;;;;;;0.80;0.80;;;;;;;;;;4929662;29;20462;-88
2022/12/31 14:44:17;;;;;;;;;;;;;;;;;;4932361;28;20051;-88
2022/12/31 14:47:04;;;;;;;1.58;1.45;;;;;;;;;;4933125;29;19933;-87
2022/12/31 14:49:40;;;;;;;1.00;1.00;;;;;;;;;;4933304;29;20044;-87
2022/12/31 14:52:21;;;;;;;1.63;1.17;;;;;;;;;;4935634;28;20471;-88
2022/12/31 14:55:08;;;;;;;0.93;0.90;;;;;;;;;;4917992;29;20052;-88
2022/12/31 14:57:37;;;;;;;1.48;0.90;;;;;;;;;;4933714;29;20503;-87
2022/12/31 15:00:27;;;;;;;3.05;1.40;;;;;;;;;;4934262;29;20397;-86
2022/12/31 15:03:06;;;;;;;1.45;1.13;;;;;;;;;;4918201;29;20427;-87
2022/12/31 15:05:39;;;;;;;1.27;1.17;;;;;;;;;;4933790;29;20490;-87
2022/12/31 15:08:16;;;;;;;1.10;1.00;;;;;;;;;;4915868;29;20411;-86
2022/12/31 15:10:47;;;;;;;1.75;1.10;;;;;;;;;;4933842;29;20067;-87
2022/12/31 15:13:36;;;;;;;0.88;0.88;;;;;;;;;;4901676;29;20047;-87
2022/12/31 15:16:13;;;;;;;3.38;1.55;;;;;;;;;;4932711;29;20791;-87
2022/12/31 15:18:53;;;;;;;5.05;1.77;;;;;;;;;;4918979;29;20063;-87
2022/12/31 15:21:40;;;;;;;1.00;0.88;;;;;;;;;;4947940;28;20073;-87
2022/12/31 15:24:29;;;;;;;1.48;1.35;;;;;;;;;;4951548;28;20533;-87
2022/12/31 15:26:59;;;;;;;1.63;1.52;;;;;;;;;;4952402;29;20044;-88
2022/12/31 15:29:29;;;;;;;1.63;1.13;;;;;;;;;;4951247;28;20415;-86
2022/12/31 15:31:58;;;;;;;0.90;0.90;;;;;;;;;;4951859;29;20534;-87
2022/12/31 15:34:32;;;;;;;1.67;1.58;;;;;;;;;;4946171;29;20415;-87
2022/12/31 15:37:03;;;;;;;2.78;2.15;;;;;;;;;;4928341;29;20048;-87